createdAt,value
2018-11-04T00:00:39.433Z,3.20
2018-11-04T00:03:10.396Z,3.20
2018-11-04T00:05:40.568Z,3.10
2018-11-04T00:08:10.710Z,3.30
2018-11-04T00:10:41.524Z,3.00
2018-11-04T00:13:11.492Z,2.90
2018-11-04T00:15:42.877Z,2.90
2018-11-04T00:18:12.696Z,2.90
2018-11-04T00:20:46.921Z,2.90
2018-11-04T00:23:17.580Z,2.80
2018-11-04T00:25:47.787Z,2.80
2018-11-04T00:28:18.127Z,2.70
2018-11-04T00:30:47.910Z,2.70
2018-11-04T00:33:18.716Z,2.70
2018-11-04T00:35:49.958Z,2.70
2018-11-04T00:38:19.966Z,2.70
2018-11-04T00:40:50.808Z,2.70
2018-11-04T00:43:20.634Z,2.60
2018-11-04T00:45:50.440Z,2.60
2018-11-04T00:48:21.484Z,2.60
2018-11-04T00:50:53.294Z,2.60
2018-11-04T00:53:25.216Z,2.50
2018-11-04T00:55:56.781Z,2.50
2018-11-04T00:58:27.973Z,2.50
2018-11-04T01:00:59.434Z,2.60
2018-11-04T01:03:29.353Z,2.60
2018-11-04T01:05:59.094Z,2.60
2018-11-04T01:08:30.383Z,2.70
2018-11-04T01:11:02.038Z,2.70
2018-11-04T01:13:32.318Z,2.70
2018-11-04T01:16:03.131Z,2.80
2018-11-04T01:18:33.289Z,2.80
2018-11-04T01:21:03.516Z,2.80
2018-11-04T01:23:33.690Z,2.70
2018-11-04T01:26:05.125Z,2.70
2018-11-04T01:28:36.045Z,2.70
2018-11-04T01:31:07.660Z,2.60
2018-11-04T01:33:37.988Z,2.60
2018-11-04T01:37:27.341Z,2.50
2018-11-04T01:39:59.184Z,2.50
2018-11-04T01:42:30.950Z,2.40
2018-11-04T01:45:02.084Z,2.40
2018-11-04T01:47:33.390Z,2.40
2018-11-04T01:50:03.642Z,2.40
2018-11-04T01:52:33.838Z,2.40
2018-11-04T01:55:04.137Z,2.40
2018-11-04T01:57:35.423Z,2.40
2018-11-04T02:00:06.951Z,2.50
2018-11-04T02:02:37.209Z,2.50
2018-11-04T02:05:07.756Z,2.50
2018-11-04T02:07:37.452Z,2.50
2018-11-04T02:10:08.511Z,2.50
2018-11-04T02:12:38.268Z,2.50
2018-11-04T02:15:10.832Z,2.60
2018-11-04T02:17:41.861Z,2.50
2018-11-04T02:20:13.028Z,2.50
2018-11-04T02:22:43.339Z,2.50
2018-11-04T02:25:15.064Z,2.50
2018-11-04T02:27:45.205Z,2.50
2018-11-04T02:30:17.619Z,2.50
2018-11-04T02:32:47.753Z,2.50
2018-11-04T02:35:17.533Z,2.50
2018-11-04T02:37:47.992Z,2.40
2018-11-04T02:40:19.256Z,2.40
2018-11-04T02:42:50.955Z,2.40
2018-11-04T02:45:21.384Z,2.40
2018-11-04T02:47:51.636Z,2.40
2018-11-04T02:50:22.460Z,2.40
2018-11-04T02:52:55.903Z,2.40
2018-11-04T02:55:26.137Z,2.50
2018-11-04T02:57:56.258Z,2.50
2018-11-04T03:00:27.670Z,2.50
2018-11-04T03:02:57.389Z,2.50
2018-11-04T03:05:27.081Z,2.40
2018-11-04T03:07:57.191Z,2.40
2018-11-04T03:10:28.014Z,2.40
2018-11-04T03:12:59.739Z,2.40
2018-11-04T03:15:31.855Z,2.40
2018-11-04T03:18:02.097Z,2.40
2018-11-04T03:20:32.578Z,2.40
2018-11-04T03:23:02.344Z,2.40
2018-11-04T03:25:33.862Z,2.50
2018-11-04T03:28:04.908Z,2.50
2018-11-04T03:30:35.210Z,2.40
2018-11-04T03:33:06.894Z,2.40
2018-11-04T03:35:37.185Z,2.40
2018-11-04T03:38:08.499Z,2.30
2018-11-04T03:40:38.742Z,2.30
2018-11-04T03:43:10.170Z,2.30
2018-11-04T03:45:41.228Z,2.50
2018-11-04T03:48:12.179Z,2.60
2018-11-04T03:50:42.579Z,2.80
2018-11-04T03:53:12.795Z,2.90
2018-11-04T03:55:43.165Z,3.00
2018-11-04T03:58:13.605Z,3.20
2018-11-04T04:00:43.581Z,3.30
2018-11-04T04:03:13.260Z,3.40
2018-11-04T04:05:43.634Z,3.50
2018-11-04T04:08:13.335Z,3.50
2018-11-04T04:10:48.390Z,3.60
2018-11-04T04:13:18.169Z,3.70
2018-11-04T04:15:48.328Z,3.80
2018-11-04T04:18:18.433Z,3.80
2018-11-04T04:20:49.273Z,3.80
2018-11-04T04:23:20.188Z,3.90
2018-11-04T04:25:51.039Z,3.90
2018-11-04T04:28:22.563Z,4.00
2018-11-04T04:30:54.337Z,4.00
2018-11-04T04:33:24.159Z,4.10
2018-11-04T04:35:57.110Z,4.10
2018-11-04T04:38:27.066Z,4.20
2018-11-04T04:40:57.051Z,4.10
2018-11-04T04:43:27.484Z,4.20
2018-11-04T04:45:57.395Z,4.30
2018-11-04T04:48:29.246Z,4.30
2018-11-04T04:51:00.512Z,4.30
2018-11-04T04:53:30.571Z,4.40
2018-11-04T04:57:03.969Z,4.50
2018-11-04T04:59:33.696Z,4.50
2018-11-04T05:02:04.510Z,4.60
2018-11-04T05:09:20.635Z,4.60
2018-11-04T05:11:50.548Z,4.60
2018-11-04T05:14:20.797Z,4.50
2018-11-04T05:16:50.784Z,4.60
2018-11-04T05:19:21.823Z,4.60
2018-11-04T05:21:52.392Z,4.60
2018-11-04T05:24:22.961Z,4.50
2018-11-04T05:26:52.851Z,4.40
2018-11-04T05:29:23.022Z,4.30
2018-11-04T05:31:52.936Z,4.20
2018-11-04T05:34:22.740Z,4.20
2018-11-04T05:36:52.406Z,4.10
2018-11-04T05:39:22.185Z,4.00
2018-11-04T05:41:51.995Z,4.00
2018-11-04T05:44:21.787Z,3.90
2018-11-04T05:46:51.967Z,3.90
2018-11-04T05:49:21.697Z,3.80
2018-11-04T05:51:51.874Z,3.80
2018-11-04T05:54:21.698Z,3.70
2018-11-04T05:56:51.736Z,3.70
2018-11-04T05:59:24.041Z,3.60
2018-11-04T06:01:53.893Z,3.50
2018-11-04T06:04:23.865Z,3.50
2018-11-04T06:06:53.778Z,3.50
2018-11-04T06:09:28.380Z,3.40
2018-11-04T06:11:58.319Z,3.40
2018-11-04T06:14:28.343Z,3.30
2018-11-04T06:16:58.505Z,3.30
2018-11-04T06:19:28.422Z,3.30
2018-11-04T06:21:58.606Z,3.20
2018-11-04T06:24:28.273Z,3.20
2018-11-04T06:26:59.192Z,3.20
2018-11-04T06:29:38.151Z,3.20
2018-11-04T06:32:08.286Z,3.20
2018-11-04T06:34:38.210Z,3.10
2018-11-04T06:37:08.385Z,3.20
2018-11-04T06:39:38.303Z,3.30
2018-11-04T06:42:08.167Z,3.40
2018-11-04T06:44:38.505Z,3.60
2018-11-04T06:47:08.503Z,3.80
2018-11-04T06:49:38.357Z,4.00
2018-11-04T06:52:08.714Z,4.20
2018-11-04T06:54:38.562Z,4.40
2018-11-04T06:57:08.556Z,4.50
2018-11-04T06:59:38.764Z,4.60
2018-11-04T07:02:08.761Z,4.80
2018-11-04T07:04:38.580Z,4.90
2018-11-04T07:07:08.796Z,5.00
2018-11-04T07:09:38.720Z,5.10
2018-11-04T07:12:08.624Z,5.30
2018-11-04T07:14:38.613Z,5.40
2018-11-04T07:17:08.620Z,5.50
2018-11-04T07:19:38.500Z,5.70
2018-11-04T07:22:08.460Z,5.80
2018-11-04T07:24:38.324Z,5.90
2018-11-04T07:27:08.575Z,5.90
2018-11-04T07:29:38.441Z,6.00
2018-11-04T07:32:09.091Z,6.20
2018-11-04T07:34:39.548Z,6.30
2018-11-04T07:37:10.230Z,6.40
2018-11-04T07:39:40.049Z,6.50
2018-11-04T07:42:10.642Z,6.60
2018-11-04T07:44:40.350Z,6.70
2018-11-04T07:47:10.087Z,6.80
2018-11-04T07:49:40.269Z,6.90
2018-11-04T07:52:10.070Z,7.00
2018-11-04T07:54:40.047Z,7.00
2018-11-04T07:57:10.489Z,7.10
2018-11-04T07:59:40.446Z,7.20
2018-11-04T08:02:10.607Z,7.30
2018-11-04T08:04:41.034Z,7.50
2018-11-04T08:07:11.126Z,7.50
2018-11-04T08:09:41.588Z,7.50
2018-11-04T08:12:12.359Z,7.60
2018-11-04T08:14:42.431Z,7.60
2018-11-04T08:17:12.761Z,7.70
2018-11-04T08:19:42.435Z,7.60
2018-11-04T08:22:12.213Z,7.60
2018-11-04T08:24:42.071Z,7.60
2018-11-04T08:27:11.996Z,7.60
2018-11-04T08:29:42.979Z,7.70
2018-11-04T08:32:13.301Z,7.70
2018-11-04T08:34:43.098Z,7.70
2018-11-04T08:37:13.621Z,7.90
2018-11-04T08:39:43.367Z,7.90
2018-11-04T08:42:13.061Z,8.00
2018-11-04T08:44:43.041Z,8.20
2018-11-04T08:47:12.831Z,8.30
2018-11-04T08:49:42.646Z,8.50
2018-11-04T08:52:12.304Z,8.40
2018-11-04T08:54:42.096Z,8.50
2018-11-04T08:57:12.008Z,8.60
2018-11-04T08:59:42.428Z,8.60
2018-11-04T09:02:12.189Z,8.70
2018-11-04T09:04:41.851Z,8.80
2018-11-04T09:07:11.790Z,8.70
2018-11-04T09:09:41.495Z,8.80
2018-11-04T09:12:11.251Z,8.80
2018-11-04T09:14:41.827Z,8.80
2018-11-04T09:17:11.963Z,8.80
2018-11-04T09:19:41.615Z,8.90
2018-11-04T09:22:11.545Z,8.90
2018-11-04T09:24:41.332Z,8.90
2018-11-04T09:27:11.100Z,8.90
2018-11-04T09:29:41.228Z,8.90
2018-11-04T09:32:11.894Z,9.00
2018-11-04T09:34:41.741Z,9.00
2018-11-04T09:37:11.571Z,9.00
2018-11-04T09:39:42.089Z,9.00
2018-11-04T09:42:12.265Z,9.10
2018-11-04T09:44:42.941Z,9.20
2018-11-04T09:47:12.910Z,9.30
2018-11-04T09:49:42.757Z,9.30
2018-11-04T09:52:15.370Z,9.40
2018-11-04T09:54:45.137Z,9.40
2018-11-04T09:57:14.809Z,9.40
2018-11-04T09:59:45.259Z,9.50
2018-11-04T10:02:15.089Z,9.60
2018-11-04T10:04:50.654Z,9.60
2018-11-04T10:07:21.052Z,9.60
2018-11-04T10:09:51.348Z,9.80
2018-11-04T10:12:21.040Z,9.90
2018-11-04T10:14:51.799Z,9.90
2018-11-04T10:17:21.809Z,10.00
2018-11-04T10:19:51.806Z,9.90
2018-11-04T10:22:21.607Z,10.00
2018-11-04T10:24:51.609Z,10.00
2018-11-04T10:27:21.360Z,10.00
2018-11-04T10:29:51.539Z,10.10
2018-11-04T10:32:22.106Z,10.20
2018-11-04T10:34:52.423Z,10.10
2018-11-04T10:37:22.242Z,10.10
2018-11-04T10:39:51.976Z,10.30
2018-11-04T10:42:21.810Z,10.40
2018-11-04T10:44:51.643Z,10.40
2018-11-04T10:47:21.385Z,10.40
2018-11-04T10:49:51.487Z,10.40
2018-11-04T10:52:21.237Z,10.40
2018-11-04T10:54:51.204Z,10.50
2018-11-04T10:57:20.983Z,10.50
2018-11-04T10:59:51.075Z,10.50
2018-11-04T11:02:21.364Z,10.50
2018-11-04T11:04:51.168Z,10.50
2018-11-04T11:07:23.962Z,10.40
2018-11-04T11:09:54.041Z,10.40
2018-11-04T11:12:25.328Z,10.40
2018-11-04T11:14:55.978Z,10.40
2018-11-04T11:17:25.892Z,10.30
2018-11-04T11:19:55.794Z,10.40
2018-11-04T11:22:25.991Z,10.50
2018-11-04T11:24:55.764Z,10.60
2018-11-04T11:27:25.432Z,10.60
2018-11-04T11:29:55.461Z,10.80
2018-11-04T11:32:25.184Z,10.80
2018-11-04T11:34:55.004Z,10.80
2018-11-04T11:37:24.876Z,11.00
2018-11-04T11:39:54.655Z,11.20
2018-11-04T11:42:24.377Z,11.30
2018-11-04T11:44:55.033Z,11.50
2018-11-04T11:47:24.971Z,11.50
2018-11-04T11:49:54.749Z,11.60
2018-11-04T11:52:24.566Z,11.60
2018-11-04T11:54:54.327Z,11.60
2018-11-04T11:57:24.121Z,11.60
2018-11-04T11:59:54.247Z,11.40
2018-11-04T12:02:24.020Z,11.30
2018-11-04T12:04:53.916Z,11.40
2018-11-04T12:07:23.704Z,11.40
2018-11-04T12:09:53.611Z,11.40
2018-11-04T12:12:23.575Z,11.50
2018-11-04T12:14:53.284Z,11.50
2018-11-04T12:17:23.869Z,11.60
2018-11-04T12:19:54.521Z,11.50
2018-11-04T12:22:24.258Z,11.60
2018-11-04T12:24:54.044Z,11.70
2018-11-04T12:27:24.025Z,11.80
2018-11-04T12:29:55.336Z,11.90
2018-11-04T12:32:26.073Z,12.00
2018-11-04T12:34:55.751Z,12.10
2018-11-04T12:37:25.564Z,12.00
2018-11-04T12:39:55.392Z,12.00
2018-11-04T12:42:25.447Z,12.00
2018-11-04T12:44:55.252Z,12.10
2018-11-04T12:47:25.827Z,12.10
2018-11-04T12:49:56.003Z,12.00
2018-11-04T12:52:26.681Z,12.00
2018-11-04T12:54:56.464Z,12.20
2018-11-04T12:57:26.468Z,12.20
2018-11-04T12:59:56.203Z,12.10
2018-11-04T13:02:26.964Z,12.00
2018-11-04T13:04:57.804Z,11.90
2018-11-04T13:07:28.687Z,12.00
2018-11-04T13:09:58.510Z,12.00
2018-11-04T13:12:29.378Z,11.80
2018-11-04T13:14:59.657Z,11.80
2018-11-04T13:17:30.136Z,11.90
2018-11-04T13:20:00.652Z,11.90
2018-11-04T13:22:30.359Z,11.80
2018-11-04T13:25:00.086Z,12.00
2018-11-04T13:27:30.800Z,12.00
2018-11-04T13:30:00.539Z,11.90
2018-11-04T13:32:30.341Z,11.80
2018-11-04T13:35:00.290Z,11.70
2018-11-04T13:37:30.177Z,11.60
2018-11-04T13:40:00.194Z,11.60
2018-11-04T13:42:30.019Z,11.70
2018-11-04T13:45:00.069Z,11.60
2018-11-04T13:47:29.849Z,11.60
2018-11-04T13:49:59.638Z,11.50
2018-11-04T13:52:29.867Z,11.60
2018-11-04T13:54:59.770Z,11.60
2018-11-04T13:57:29.744Z,11.70
2018-11-04T13:59:59.920Z,11.70
2018-11-04T14:02:29.745Z,11.70
2018-11-04T14:04:59.655Z,11.50
2018-11-04T14:07:29.516Z,11.50
2018-11-04T14:10:00.131Z,11.50
2018-11-04T14:12:30.960Z,11.50
2018-11-04T14:15:05.857Z,11.50
2018-11-04T14:17:36.548Z,11.50
2018-11-04T14:20:11.005Z,11.50
2018-11-04T14:22:41.757Z,11.50
2018-11-04T14:25:13.047Z,11.40
2018-11-04T14:27:45.022Z,11.30
2018-11-04T14:30:16.739Z,11.30
2018-11-04T14:32:47.655Z,11.20
2018-11-04T14:35:18.196Z,11.20
2018-11-04T14:37:48.892Z,11.20
2018-11-04T14:40:19.296Z,11.20
2018-11-04T14:42:50.027Z,11.20
2018-11-04T14:45:21.341Z,11.10
2018-11-04T14:47:52.452Z,11.10
2018-11-04T14:50:23.175Z,11.00
2018-11-04T14:52:53.816Z,11.00
2018-11-04T14:55:24.845Z,11.00
2018-11-04T14:57:55.218Z,11.00
2018-11-04T15:00:25.907Z,11.00
2018-11-04T15:02:57.019Z,11.10
2018-11-04T15:05:27.375Z,11.10
2018-11-04T15:07:57.583Z,11.00
2018-11-04T15:10:27.896Z,11.10
2018-11-04T15:12:58.501Z,11.20
2018-11-04T15:15:29.019Z,11.10
2018-11-04T15:17:59.387Z,11.00
2018-11-04T15:20:29.632Z,11.00
2018-11-04T15:23:00.257Z,11.00
2018-11-04T15:25:30.628Z,11.00
2018-11-04T15:28:01.007Z,11.00
2018-11-04T15:30:31.295Z,11.00
2018-11-04T15:33:01.423Z,10.90
2018-11-04T15:35:32.105Z,11.00
2018-11-04T15:38:02.452Z,11.00
2018-11-04T15:40:32.732Z,11.00
2018-11-04T15:43:03.042Z,11.00
2018-11-04T15:45:33.279Z,11.00
2018-11-04T15:48:03.908Z,11.00
2018-11-04T15:50:34.289Z,10.90
2018-11-04T15:53:05.077Z,10.90
2018-11-04T15:55:35.584Z,10.90
2018-11-04T15:58:06.102Z,10.90
2018-11-04T16:00:36.828Z,10.80
2018-11-04T16:03:07.317Z,10.90
2018-11-04T16:05:37.860Z,10.80
2018-11-04T16:08:08.374Z,10.80
2018-11-04T16:10:39.652Z,10.90
2018-11-04T16:13:10.074Z,10.80
2018-11-04T16:15:40.388Z,10.90
2018-11-04T16:18:10.624Z,10.80
2018-11-04T16:20:41.281Z,10.80
2018-11-04T16:23:12.012Z,10.80
2018-11-04T16:25:42.486Z,10.80
2018-11-04T16:28:13.251Z,10.80
2018-11-04T16:30:43.590Z,10.80
2018-11-04T16:33:14.026Z,10.80
2018-11-04T16:35:44.743Z,10.80
2018-11-04T16:38:17.283Z,10.70
2018-11-04T16:40:49.061Z,10.70
2018-11-04T16:43:21.313Z,10.70
2018-11-04T16:45:54.953Z,10.60
2018-11-04T16:49:15.007Z,10.60
2018-11-04T16:51:45.000Z,10.60
2018-11-04T16:54:16.735Z,10.60
2018-11-04T16:56:47.502Z,10.60
2018-11-04T16:59:17.313Z,10.60
2018-11-04T17:01:47.014Z,10.50
2018-11-04T17:04:17.210Z,10.50
2018-11-04T17:06:46.980Z,10.50
2018-11-04T17:09:16.782Z,10.60
2018-11-04T17:11:52.169Z,10.50
2018-11-04T17:14:21.883Z,10.50
2018-11-04T17:16:53.422Z,10.50
2018-11-04T17:19:23.146Z,10.50
2018-11-04T17:21:52.999Z,10.50
2018-11-04T17:24:22.912Z,10.50
2018-11-04T17:26:52.750Z,10.50
2018-11-04T17:29:22.508Z,10.50
2018-11-04T17:31:52.282Z,10.50
2018-11-04T17:34:22.823Z,10.50
2018-11-04T17:36:52.604Z,10.60
2018-11-04T17:39:22.346Z,10.60
2018-11-04T17:41:52.238Z,10.50
2018-11-04T17:44:22.191Z,10.60
2018-11-04T17:46:52.393Z,10.60
2018-11-04T17:49:22.140Z,10.50
2018-11-04T17:51:52.253Z,10.50
2018-11-04T17:54:22.445Z,10.60
2018-11-04T17:56:52.295Z,10.60
2018-11-04T17:59:22.039Z,10.60
2018-11-04T18:01:57.212Z,10.60
2018-11-04T18:04:33.784Z,10.50
2018-11-04T18:07:05.295Z,10.50
2018-11-04T18:09:35.102Z,10.50
2018-11-04T18:12:06.298Z,10.50
2018-11-04T18:14:36.560Z,10.50
2018-11-04T18:17:06.911Z,10.50
2018-11-04T18:19:37.445Z,10.50
2018-11-04T18:22:08.591Z,10.50
2018-11-04T18:24:38.398Z,10.60
2018-11-04T18:27:08.195Z,10.60
2018-11-04T18:29:38.421Z,10.60
2018-11-04T18:32:31.537Z,10.60
2018-11-04T18:35:02.483Z,10.50
2018-11-04T18:37:32.221Z,10.40
2018-11-04T18:40:02.617Z,10.40
2018-11-04T18:42:54.292Z,10.40
2018-11-04T18:48:24.642Z,10.40
2018-11-04T18:50:56.299Z,10.30
2018-11-04T18:53:28.770Z,10.30
2018-11-04T18:56:01.313Z,10.40
2018-11-04T18:58:32.753Z,10.40
2018-11-04T19:01:04.727Z,10.20
2018-11-04T19:03:35.441Z,10.40
2018-11-04T19:06:07.255Z,10.40
2018-11-04T19:08:38.340Z,10.50
2018-11-04T19:11:10.230Z,10.50
2018-11-04T19:13:42.901Z,10.40
2018-11-04T19:16:17.779Z,10.40
2018-11-04T19:18:49.206Z,10.40
2018-11-04T19:21:18.982Z,10.40
2018-11-04T19:23:48.981Z,10.40
2018-11-04T19:26:19.970Z,10.40
2018-11-04T19:28:49.858Z,10.40
2018-11-04T19:31:20.957Z,10.40
2018-11-04T19:33:50.701Z,10.40
2018-11-04T19:36:21.305Z,10.70
2018-11-04T19:38:52.553Z,10.40
2018-11-04T19:41:22.747Z,10.40
2018-11-04T19:43:53.646Z,10.40
2018-11-04T19:46:23.460Z,10.40
2018-11-04T19:48:54.096Z,10.30
2018-11-04T19:51:23.869Z,10.40
2018-11-04T19:53:55.360Z,10.40
2018-11-04T19:56:26.962Z,10.40
2018-11-04T19:58:58.994Z,10.40
2018-11-04T20:01:32.331Z,10.40
2018-11-04T20:04:02.766Z,10.40
2018-11-04T20:06:33.431Z,10.50
2018-11-04T20:09:09.018Z,10.50
2018-11-04T20:11:38.895Z,10.50
2018-11-04T20:14:20.892Z,10.40
2018-11-04T20:16:53.136Z,10.40
2018-11-04T20:19:31.625Z,10.40
2018-11-04T20:22:03.588Z,10.40
2018-11-04T20:24:39.701Z,10.40
2018-11-04T20:27:11.878Z,10.40
2018-11-04T20:29:46.059Z,10.40
2018-11-04T20:32:22.290Z,10.40
2018-11-04T20:34:54.351Z,10.40
2018-11-04T20:37:25.116Z,10.40
2018-11-04T20:40:01.680Z,10.40
2018-11-04T20:42:34.924Z,10.30
2018-11-04T20:45:06.687Z,10.40
2018-11-04T20:47:46.401Z,10.40
2018-11-04T20:50:23.844Z,10.40
2018-11-04T20:52:54.950Z,10.40
2018-11-04T20:55:30.538Z,10.40
2018-11-04T20:58:07.289Z,10.40
2018-11-04T21:00:45.729Z,10.40
2018-11-04T21:03:18.515Z,10.40
2018-11-04T21:05:51.219Z,10.40
2018-11-04T21:08:22.714Z,10.40
2018-11-04T21:10:54.719Z,10.30
2018-11-04T21:13:25.295Z,10.40
2018-11-04T21:16:00.447Z,10.40
2018-11-04T21:18:31.838Z,10.40
2018-11-04T21:21:02.913Z,10.40
2018-11-04T21:23:33.802Z,10.40
2018-11-04T21:26:05.927Z,10.40
2018-11-04T21:28:37.576Z,10.40
2018-11-04T21:31:08.414Z,10.40
2018-11-04T21:33:39.615Z,10.50
2018-11-04T21:36:13.964Z,10.30
2018-11-04T21:38:45.909Z,10.30
2018-11-04T21:41:17.623Z,10.30
2018-11-04T21:43:49.833Z,10.30
2018-11-04T21:46:20.310Z,10.30
2018-11-04T21:48:51.230Z,10.30
2018-11-04T21:51:22.792Z,10.30
2018-11-04T21:53:57.215Z,10.30
2018-11-04T21:56:28.280Z,10.30
2018-11-04T21:58:58.849Z,10.30
2018-11-04T22:01:30.255Z,10.30
2018-11-04T22:04:01.932Z,10.30
2018-11-04T22:06:32.554Z,10.30
2018-11-04T22:09:04.367Z,10.20
2018-11-04T22:11:37.474Z,10.30
2018-11-04T22:14:08.493Z,10.30
2018-11-04T22:16:40.183Z,10.30
2018-11-04T22:19:11.309Z,10.30
2018-11-04T22:21:42.191Z,10.30
2018-11-04T22:24:13.102Z,10.30
2018-11-04T22:26:43.656Z,10.30
2018-11-04T22:29:19.390Z,10.30
2018-11-04T22:31:52.682Z,10.30
2018-11-04T22:34:25.546Z,10.30
2018-11-04T22:36:57.743Z,10.30
2018-11-04T22:39:28.957Z,10.30
2018-11-04T22:42:01.395Z,10.30
2018-11-04T22:44:33.040Z,10.30
2018-11-04T22:47:04.370Z,10.30
2018-11-04T22:49:35.744Z,10.30
2018-11-04T22:52:06.740Z,10.30
2018-11-04T22:54:38.097Z,10.30
2018-11-04T22:57:09.304Z,10.30
2018-11-04T22:59:40.679Z,10.30
2018-11-04T23:02:10.961Z,10.30
2018-11-04T23:04:46.090Z,10.30
2018-11-04T23:07:16.877Z,10.30
2018-11-04T23:09:48.426Z,10.40
2018-11-04T23:12:20.454Z,10.40
2018-11-04T23:14:51.912Z,10.30
2018-11-04T23:17:24.782Z,10.30
2018-11-04T23:19:55.360Z,10.30
2018-11-04T23:22:27.851Z,10.30
2018-11-04T23:24:59.378Z,10.30
2018-11-04T23:27:32.209Z,10.30
2018-11-04T23:30:03.638Z,10.30
2018-11-04T23:32:34.226Z,10.30
2018-11-04T23:35:05.378Z,10.30
2018-11-04T23:37:36.847Z,10.30
2018-11-04T23:40:09.189Z,10.30
2018-11-04T23:42:40.997Z,10.30
2018-11-04T23:45:14.433Z,10.30
2018-11-04T23:47:46.287Z,10.30
2018-11-04T23:50:18.652Z,10.30
2018-11-04T23:52:49.870Z,10.30
2018-11-04T23:55:20.936Z,10.30
2018-11-04T23:57:52.746Z,10.20
